createdAt,value
2022-11-17T00:01:19.383Z,75.22
2022-11-17T00:06:39.976Z,74.86
2022-11-17T00:12:22.708Z,74.92
2022-11-17T00:17:47.830Z,74.96
2022-11-17T00:23:08.180Z,74.69
2022-11-17T00:28:28.819Z,74.73
2022-11-17T00:34:07.568Z,74.57
2022-11-17T00:39:28.065Z,74.67
2022-11-17T00:44:48.396Z,74.75
2022-11-17T00:50:09.867Z,74.77
2022-11-17T00:55:30.399Z,74.96
2022-11-17T01:00:50.774Z,74.87
2022-11-17T01:06:16.942Z,74.80
2022-11-17T01:11:37.422Z,74.73
2022-11-17T01:16:58.146Z,74.87
2022-11-17T01:22:18.627Z,74.92
2022-11-17T01:27:39.312Z,74.90
2022-11-17T01:32:59.849Z,74.71
2022-11-17T01:38:20.818Z,74.86
2022-11-17T01:43:45.155Z,74.67
2022-11-17T01:49:25.177Z,74.71
2022-11-17T01:54:47.541Z,75.00
2022-11-17T02:00:10.212Z,74.87
2022-11-17T02:05:48.972Z,75.05
2022-11-17T02:11:14.204Z,74.94
2022-11-17T02:16:34.724Z,75.16
2022-11-17T02:22:33.560Z,75.04
2022-11-17T02:28:06.604Z,74.95
2022-11-17T02:34:01.316Z,74.93
2022-11-17T02:39:48.882Z,75.00
2022-11-17T02:45:14.616Z,74.87
2022-11-17T02:50:36.923Z,74.67
2022-11-17T02:56:01.126Z,74.75
2022-11-17T03:01:35.054Z,74.61
2022-11-17T03:07:08.869Z,74.47
2022-11-17T03:12:39.477Z,74.36
2022-11-17T03:18:13.225Z,74.46
2022-11-17T03:23:44.533Z,74.20
2022-11-17T03:29:09.939Z,74.22
2022-11-17T03:34:37.255Z,73.99
2022-11-17T03:40:04.219Z,73.88
2022-11-17T03:45:28.947Z,73.84
2022-11-17T03:51:04.519Z,73.98
2022-11-17T03:56:31.245Z,73.79
2022-11-17T04:01:52.196Z,73.93
2022-11-17T04:07:12.697Z,73.81
2022-11-17T04:12:52.231Z,73.82
2022-11-17T04:18:13.870Z,73.98
2022-11-17T04:23:34.669Z,74.00
2022-11-17T04:28:55.423Z,74.04
2022-11-17T04:34:15.955Z,74.28
2022-11-17T04:39:38.904Z,74.49
2022-11-17T04:44:59.453Z,74.56
2022-11-17T04:50:20.007Z,74.87
2022-11-17T04:55:40.671Z,75.14
2022-11-17T05:01:12.468Z,75.18
2022-11-17T05:06:39.323Z,75.27
2022-11-17T05:12:18.517Z,75.38
2022-11-17T05:17:39.372Z,75.57
2022-11-17T05:23:18.805Z,75.63
2022-11-17T05:28:39.587Z,75.76
2022-11-17T05:34:01.042Z,75.95
2022-11-17T05:39:21.623Z,76.06
2022-11-17T05:44:42.223Z,76.15
2022-11-17T05:50:02.630Z,76.02
2022-11-17T05:55:23.487Z,75.94
2022-11-17T06:00:44.475Z,76.07
2022-11-17T06:06:05.477Z,75.55
2022-11-17T06:11:26.107Z,75.49
2022-11-17T06:16:49.835Z,75.77
2022-11-17T06:22:12.693Z,75.86
2022-11-17T06:27:34.248Z,75.76
2022-11-17T06:32:56.359Z,75.55
2022-11-17T06:38:16.833Z,75.61
2022-11-17T06:43:37.651Z,75.62
2022-11-17T06:48:58.643Z,75.55
2022-11-17T06:54:19.361Z,75.62
2022-11-17T06:59:39.663Z,75.67
2022-11-17T07:05:00.319Z,75.60
2022-11-17T07:10:20.739Z,75.35
2022-11-17T07:15:41.214Z,75.17
2022-11-17T07:21:06.422Z,75.22
2022-11-17T07:26:26.852Z,75.12
2022-11-17T07:31:47.306Z,75.25
2022-11-17T07:37:07.701Z,75.40
2022-11-17T07:42:27.984Z,75.32
2022-11-17T07:47:59.887Z,75.45
2022-11-17T07:53:20.380Z,75.30
2022-11-17T07:58:40.949Z,75.29
2022-11-17T08:04:01.995Z,75.18
2022-11-17T08:09:22.660Z,75.20
2022-11-17T08:14:43.144Z,74.97
2022-11-17T08:20:05.446Z,74.57
2022-11-17T08:25:28.203Z,74.26
2022-11-17T08:30:49.000Z,74.19
2022-11-17T08:36:10.107Z,72.97
2022-11-17T08:41:31.731Z,72.41
2022-11-17T08:46:52.525Z,72.57
2022-11-17T08:52:13.071Z,72.84
2022-11-17T08:57:33.637Z,72.97
2022-11-17T09:02:55.025Z,73.03
2022-11-17T09:08:44.427Z,72.46
2022-11-17T09:13:56.288Z,72.23
2022-11-17T09:19:17.334Z,71.14
2022-11-17T09:24:37.699Z,70.17
2022-11-17T09:29:59.194Z,69.68
2022-11-17T09:35:20.134Z,69.45
2022-11-17T09:40:41.641Z,69.06
2022-11-17T09:46:23.892Z,69.05
2022-11-17T09:51:47.722Z,68.53
2022-11-17T09:57:18.464Z,69.14
2022-11-17T10:02:39.558Z,70.37
2022-11-17T10:08:11.671Z,70.82
2022-11-17T10:13:36.023Z,71.18
2022-11-17T10:18:57.270Z,71.31
2022-11-17T10:24:36.912Z,71.32
2022-11-17T10:30:20.060Z,71.31
2022-11-17T10:35:40.369Z,72.04
2022-11-17T10:41:03.091Z,72.56
2022-11-17T10:46:24.220Z,72.76
2022-11-17T10:51:44.813Z,73.14
2022-11-17T10:57:18.000Z,73.11
2022-11-17T11:02:39.371Z,73.13
2022-11-17T11:08:21.237Z,73.18
2022-11-17T11:13:50.523Z,73.41
2022-11-17T11:19:15.168Z,73.46
2022-11-17T11:24:57.159Z,73.60
2022-11-17T11:30:19.393Z,73.52
2022-11-17T11:36:11.302Z,72.99
2022-11-17T11:41:42.550Z,72.72
2022-11-17T11:47:54.642Z,72.86
2022-11-17T11:53:41.694Z,73.21
2022-11-17T11:59:36.236Z,73.49
2022-11-17T12:05:16.516Z,73.78
2022-11-17T12:10:49.397Z,73.63
2022-11-17T12:16:18.211Z,73.49
2022-11-17T12:21:38.660Z,73.38
2022-11-17T12:27:36.013Z,73.54
2022-11-17T12:32:58.111Z,73.53
2022-11-17T12:38:19.884Z,73.73
2022-11-17T12:43:40.786Z,73.99
2022-11-17T12:49:19.558Z,74.01
2022-11-17T12:54:59.880Z,74.00
2022-11-17T13:00:24.432Z,73.75
2022-11-17T13:05:44.742Z,74.19
2022-11-17T13:11:14.418Z,74.15
2022-11-17T13:16:37.436Z,74.22
2022-11-17T13:22:01.020Z,74.51
2022-11-17T13:27:30.345Z,74.63
2022-11-17T13:32:51.675Z,74.63
2022-11-17T13:38:12.115Z,74.61
2022-11-17T13:43:39.330Z,74.49
2022-11-17T13:49:00.008Z,74.54
2022-11-17T13:54:22.497Z,74.79
2022-11-17T13:59:44.828Z,74.83
2022-11-17T14:05:13.334Z,74.65
2022-11-17T14:10:37.485Z,74.68
2022-11-17T14:16:00.694Z,74.76
2022-11-17T14:21:20.950Z,74.89
2022-11-17T14:26:44.672Z,75.14
2022-11-17T14:32:05.184Z,75.34
2022-11-17T14:37:32.526Z,75.27
2022-11-17T14:42:53.633Z,75.36
2022-11-17T14:48:18.832Z,75.75
2022-11-17T14:53:42.053Z,75.86
2022-11-17T14:59:02.649Z,76.30
2022-11-17T15:10:05.650Z,76.67
2022-11-17T15:15:26.991Z,76.93
2022-11-17T15:20:47.706Z,77.10
2022-11-17T15:26:14.785Z,77.09
2022-11-17T15:31:35.853Z,77.19
2022-11-17T15:36:56.536Z,77.55
2022-11-17T15:42:17.059Z,77.64
2022-11-17T15:47:37.598Z,77.90
2022-11-17T15:53:04.092Z,78.05
2022-11-17T15:58:25.357Z,78.04
2022-11-17T16:03:45.662Z,78.17
2022-11-17T16:09:06.682Z,78.47
2022-11-17T16:14:27.269Z,78.70
2022-11-17T16:19:48.427Z,78.38
2022-11-17T16:25:10.406Z,78.52
2022-11-17T16:30:35.319Z,78.61
2022-11-17T16:36:04.511Z,78.72
2022-11-17T16:41:27.916Z,78.98
2022-11-17T16:46:49.719Z,79.18
2022-11-17T16:52:10.365Z,79.15
2022-11-17T16:57:31.121Z,79.20
2022-11-17T17:02:51.605Z,79.35
2022-11-17T17:08:12.199Z,79.30
2022-11-17T17:13:33.324Z,79.50
2022-11-17T17:18:56.309Z,79.69
2022-11-17T17:24:17.028Z,79.57
2022-11-17T17:29:37.777Z,79.65
2022-11-17T17:34:58.423Z,80.00
2022-11-17T17:40:19.320Z,79.83
2022-11-17T17:45:39.667Z,79.92
2022-11-17T17:51:12.164Z,80.24
2022-11-17T17:56:34.294Z,80.21
2022-11-17T18:01:54.932Z,80.10
2022-11-17T18:07:15.355Z,80.13
2022-11-17T18:12:35.865Z,80.28
2022-11-17T18:17:56.463Z,80.29
2022-11-17T18:23:17.278Z,80.37
2022-11-17T18:28:39.490Z,80.44
2022-11-17T18:34:02.715Z,80.50
2022-11-17T18:39:23.665Z,80.95
2022-11-17T18:44:44.085Z,80.58
2022-11-17T18:50:05.023Z,80.79
2022-11-17T18:55:25.658Z,80.72
2022-11-17T19:00:46.660Z,80.79
2022-11-17T19:06:10.340Z,80.82
2022-11-17T19:11:32.817Z,80.86
2022-11-17T19:16:54.536Z,80.84
2022-11-17T19:22:15.112Z,80.96
2022-11-17T19:27:35.751Z,80.93
2022-11-17T19:32:56.939Z,81.18
2022-11-17T19:38:17.698Z,81.41
2022-11-17T19:43:45.203Z,81.22
2022-11-17T19:49:07.895Z,80.88
2022-11-17T19:54:28.350Z,81.20
2022-11-17T19:59:48.723Z,81.35
2022-11-17T20:05:10.917Z,81.33
2022-11-17T20:10:32.571Z,81.57
2022-11-17T20:15:57.113Z,81.42
2022-11-17T20:21:18.012Z,81.37
2022-11-17T20:26:40.960Z,81.38
2022-11-17T20:32:01.654Z,81.37
2022-11-17T20:37:22.683Z,81.50
2022-11-17T20:42:43.207Z,81.66
2022-11-17T20:48:04.126Z,81.75
2022-11-17T20:53:25.586Z,81.67
2022-11-17T20:58:46.101Z,81.67
2022-11-17T21:04:06.498Z,81.84
2022-11-17T21:09:27.095Z,81.84
2022-11-17T21:14:48.893Z,81.79
2022-11-17T21:20:10.880Z,81.81
2022-11-17T21:25:31.940Z,81.68
2022-11-17T21:30:52.547Z,81.81
2022-11-17T21:36:15.565Z,81.79
2022-11-17T21:41:37.807Z,81.97
2022-11-17T21:46:58.066Z,81.91
2022-11-17T21:52:18.641Z,82.03
2022-11-17T21:57:39.423Z,82.08
2022-11-17T22:02:59.861Z,82.06
2022-11-17T22:08:20.426Z,82.49
2022-11-17T22:13:41.645Z,82.14
2022-11-17T22:19:02.944Z,82.12
2022-11-17T22:24:23.457Z,82.18
2022-11-17T22:29:44.136Z,82.07
2022-11-17T22:35:04.978Z,82.11
2022-11-17T22:40:25.550Z,81.99
2022-11-17T22:45:45.746Z,82.13
2022-11-17T22:51:08.130Z,81.90
2022-11-17T22:56:28.636Z,81.93
2022-11-17T23:01:49.311Z,81.89
2022-11-17T23:07:10.252Z,81.82
2022-11-17T23:12:30.914Z,81.79
2022-11-17T23:17:51.315Z,81.81
2022-11-17T23:23:12.025Z,81.65
2022-11-17T23:28:32.706Z,81.63
2022-11-17T23:33:53.518Z,81.74
2022-11-17T23:39:13.938Z,81.49
2022-11-17T23:44:34.480Z,81.49
2022-11-17T23:49:55.116Z,81.44
2022-11-17T23:55:15.841Z,81.38
